Weather at Exeter International Airport

Public forecast

Using degrees Celsius for public forecast. Weather courtesy of forecast.io.

Current aviation weather report (METAR) for Exeter International Airport

Report is more than 6 hours old.

2022/11/14 15:20 (retrieved 2 years ago)

EGTE 141520Z VRB01KT 9999 SCT026 14/09 Q1006

Closest aviation forecast (TAF) to Exeter International Airport

Forecast is more than 12 hours old.

Closest forecast is Cardiff International Airport, 39.9 nm (73.8 km) N.

2023/02/22 18:00 (retrieved 1 year ago)

TAF EGFF 221653Z 2218/2318 30012KT 9999 SCT033 PROB30 TEMPO 2218/2220 6000 SHRA BKN013 BECMG 2220/2223 01010KT PROB30 TEMPO 2301/2307 8000 RA SHRA BKN012